createdAt,value
2023-04-10T00:00:06.373Z,101911.91
2023-04-10T00:02:33.903Z,101925.13
2023-04-10T00:05:01.253Z,101922.34
2023-04-10T00:07:28.025Z,101927.56
2023-04-10T00:09:54.993Z,101935.47
2023-04-10T00:12:21.897Z,101933.59
2023-04-10T00:14:48.772Z,101930.00
2023-04-10T00:17:15.579Z,101931.75
2023-04-10T00:19:42.337Z,101925.44
2023-04-10T00:22:09.101Z,101932.47
2023-04-10T00:24:35.960Z,101929.75
2023-04-10T00:27:02.731Z,101927.06
2023-04-10T00:29:29.646Z,101927.00
2023-04-10T00:31:56.477Z,101920.72
2023-04-10T00:34:23.905Z,101918.06
2023-04-10T00:36:51.033Z,101918.00
2023-04-10T00:39:17.838Z,101912.66
2023-04-10T00:41:44.677Z,101902.03
2023-04-10T00:44:11.908Z,101901.13
2023-04-10T00:46:39.897Z,101896.59
2023-04-10T00:49:06.889Z,101893.03
2023-04-10T00:51:33.992Z,101886.75
2023-04-10T00:54:02.456Z,101890.28
2023-04-10T00:56:32.206Z,101889.38
2023-04-10T00:58:59.076Z,101885.78
2023-04-10T01:01:26.034Z,101884.00
2023-04-10T01:03:54.307Z,101881.34
2023-04-10T01:06:59.113Z,101885.66
2023-04-10T01:10:02.136Z,101888.19
2023-04-10T01:12:41.928Z,101892.56
2023-04-10T01:15:22.578Z,101894.25
2023-04-10T01:18:24.488Z,101897.66
2023-04-10T01:20:51.269Z,101893.22
2023-04-10T01:23:55.077Z,101907.22
2023-04-10T01:27:01.541Z,101910.63
2023-04-10T01:29:30.823Z,101907.91
2023-04-10T01:32:04.010Z,101905.22
2023-04-10T01:34:54.734Z,101906.03
2023-04-10T01:37:34.608Z,101910.38
2023-04-10T01:40:06.983Z,101904.97
2023-04-10T01:42:42.663Z,101908.44
2023-04-10T01:45:17.417Z,101913.66
2023-04-10T01:47:44.470Z,101909.19
2023-04-10T01:50:12.234Z,101906.50
2023-04-10T01:52:40.162Z,101909.06
2023-04-10T01:55:08.885Z,101906.38
2023-04-10T01:57:38.720Z,101902.78
2023-04-10T02:00:07.402Z,101896.56
2023-04-10T02:02:34.954Z,101894.78
2023-04-10T02:05:02.002Z,101885.03
2023-04-10T02:07:38.420Z,101885.00
2023-04-10T02:10:19.792Z,101882.28
2023-04-10T02:13:00.037Z,101882.16
2023-04-10T02:15:30.442Z,101878.59
2023-04-10T02:17:59.936Z,101884.66
2023-04-10T02:20:27.133Z,101879.31
2023-04-10T02:22:54.237Z,101887.19
2023-04-10T02:25:21.074Z,101868.56
2023-04-10T02:27:47.872Z,101863.28
2023-04-10T02:30:14.698Z,101861.44
2023-04-10T02:32:41.963Z,101864.03
2023-04-10T02:35:09.061Z,101863.09
2023-04-10T02:37:37.007Z,101859.53
2023-04-10T02:40:04.109Z,101856.84
2023-04-10T02:42:30.927Z,101851.50
2023-04-10T02:44:57.714Z,101857.59
2023-04-10T02:47:24.593Z,101848.72
2023-04-10T02:49:51.419Z,101847.84
2023-04-10T02:52:18.742Z,101853.94
2023-04-10T02:54:46.256Z,101850.34
2023-04-10T02:57:13.018Z,101847.66
2023-04-10T02:59:39.943Z,101853.78
2023-04-10T03:02:07.396Z,101846.69
2023-04-10T03:04:34.734Z,101841.38
2023-04-10T03:07:01.719Z,101842.22
2023-04-10T03:09:28.548Z,101837.78
2023-04-10T03:11:55.318Z,101834.22
2023-04-10T03:14:22.093Z,101835.06
2023-04-10T03:16:48.948Z,101833.19
2023-04-10T03:19:16.214Z,101826.13
2023-04-10T03:21:43.010Z,101834.88
2023-04-10T03:24:09.762Z,101819.84
2023-04-10T03:26:36.532Z,101826.03
2023-04-10T03:29:03.636Z,101822.44
2023-04-10T03:31:30.954Z,101825.06
2023-04-10T03:33:58.228Z,101813.56
2023-04-10T03:36:25.314Z,101817.91
2023-04-10T03:38:52.778Z,101812.56
2023-04-10T03:41:19.599Z,101810.72
2023-04-10T03:43:46.390Z,101811.53
2023-04-10T03:46:13.147Z,101807.94
2023-04-10T03:48:41.122Z,101809.66
2023-04-10T03:51:08.069Z,101809.56
2023-04-10T03:53:36.196Z,101815.69
2023-04-10T03:56:03.717Z,101810.28
2023-04-10T03:58:30.476Z,101807.59
2023-04-10T04:00:57.407Z,101809.28
2023-04-10T04:03:24.379Z,101813.59
2023-04-10T04:05:52.192Z,101815.31
2023-04-10T04:08:19.028Z,101818.72
2023-04-10T04:10:45.795Z,101822.19
2023-04-10T04:13:12.598Z,101827.38
2023-04-10T04:15:39.505Z,101819.44
2023-04-10T04:18:06.511Z,101814.97
2023-04-10T04:20:33.399Z,101815.75
2023-04-10T04:23:00.217Z,101808.59
2023-04-10T04:25:27.139Z,101807.69
2023-04-10T04:27:53.906Z,101805.94
2023-04-10T04:30:20.827Z,101819.00
2023-04-10T04:32:47.610Z,101799.66
2023-04-10T04:35:14.393Z,101812.81
2023-04-10T04:37:41.164Z,101808.38
2023-04-10T04:40:08.423Z,101809.28
2023-04-10T04:42:35.766Z,101809.31
2023-04-10T04:45:02.575Z,101810.19
2023-04-10T04:47:29.373Z,101805.84
2023-04-10T04:49:56.188Z,101806.84
2023-04-10T04:52:23.669Z,101816.56
2023-04-10T04:54:50.502Z,101809.63
2023-04-10T04:57:17.304Z,101810.69
2023-04-10T04:59:44.089Z,101802.88
2023-04-10T05:02:10.909Z,101800.34
2023-04-10T05:04:37.767Z,101804.03
2023-04-10T05:07:04.545Z,101809.47
2023-04-10T05:09:31.322Z,101802.59
2023-04-10T05:16:24.040Z,101810.34
2023-04-10T05:18:51.037Z,101812.56
2023-04-10T05:21:17.812Z,101808.72
2023-04-10T05:23:44.563Z,101815.41
2023-04-10T05:26:11.331Z,101810.56
2023-04-10T05:28:38.069Z,101823.31
2023-04-10T05:31:05.198Z,101809.66
2023-04-10T05:33:32.029Z,101808.28
2023-04-10T05:35:58.806Z,101803.31
2023-04-10T05:38:25.632Z,101801.91
2023-04-10T05:40:52.422Z,101801.50
2023-04-10T05:43:19.162Z,101795.88
2023-04-10T05:45:45.931Z,101801.59
2023-04-10T05:48:12.707Z,101807.47
2023-04-10T05:50:39.504Z,101803.63
2023-04-10T05:53:06.305Z,101815.75
2023-04-10T05:55:33.052Z,101811.13
2023-04-10T05:57:59.854Z,101804.63
2023-04-10T06:00:27.366Z,101808.69
2023-04-10T06:02:54.242Z,101817.25
2023-04-10T06:05:21.542Z,101804.44
2023-04-10T06:07:48.399Z,101803.94
2023-04-10T06:10:15.480Z,101797.91
2023-04-10T06:12:42.270Z,101803.38
2023-04-10T06:15:09.416Z,101795.47
2023-04-10T06:17:43.574Z,101801.72
2023-04-10T06:20:10.834Z,101793.72
2023-04-10T06:22:37.638Z,101787.50
2023-04-10T06:25:05.364Z,101783.94
2023-04-10T06:27:34.487Z,101780.41
2023-04-10T06:30:01.554Z,101781.25
2023-04-10T06:32:28.322Z,101781.25
2023-04-10T06:34:55.818Z,101778.59
2023-04-10T06:37:31.152Z,101763.56
2023-04-10T06:40:07.321Z,101762.72
2023-04-10T06:42:34.464Z,101759.19
2023-04-10T06:45:01.476Z,101756.50
2023-04-10T06:47:28.813Z,101752.09
2023-04-10T06:49:55.902Z,101762.72
2023-04-10T06:52:22.719Z,101754.75
2023-04-10T06:54:49.515Z,101755.59
2023-04-10T06:57:16.905Z,101757.38
2023-04-10T06:59:43.685Z,101760.94
2023-04-10T07:02:10.499Z,101762.72
2023-04-10T07:04:37.528Z,101757.38
2023-04-10T07:07:05.268Z,101755.59
2023-04-10T07:09:32.075Z,101760.91
2023-04-10T07:11:58.900Z,101750.16
2023-04-10T07:14:25.743Z,101753.59
2023-04-10T07:16:53.951Z,101748.13
2023-04-10T07:19:21.079Z,101737.28
2023-04-10T07:21:50.448Z,101733.63
2023-04-10T07:24:18.069Z,101737.16
2023-04-10T07:26:46.118Z,101724.63
2023-04-10T07:29:13.995Z,101722.72
2023-04-10T07:31:40.843Z,101720.81
2023-04-10T07:34:08.041Z,101725.88
2023-04-10T07:36:34.934Z,101716.69
2023-04-10T07:39:01.722Z,101716.34
2023-04-10T07:41:28.503Z,101714.25
2023-04-10T07:43:55.429Z,101710.41
2023-04-10T07:46:22.379Z,101711.91
2023-04-10T07:48:49.733Z,101702.66
2023-04-10T07:51:16.543Z,101712.06
2023-04-10T07:53:43.424Z,101708.16
2023-04-10T07:56:19.321Z,101712.31
2023-04-10T07:58:46.641Z,101706.50
2023-04-10T08:01:14.419Z,101705.22
2023-04-10T08:03:43.622Z,101704.16
2023-04-10T08:06:11.740Z,101697.06
2023-04-10T08:08:40.664Z,101696.97
2023-04-10T08:11:29.712Z,101698.88
2023-04-10T08:14:01.676Z,101699.13
2023-04-10T08:16:34.559Z,101690.53
2023-04-10T08:19:02.219Z,101685.41
2023-04-10T08:21:31.542Z,101685.59
2023-04-10T08:24:02.148Z,101680.41
2023-04-10T08:26:29.424Z,101682.34
2023-04-10T08:28:59.685Z,101682.47
2023-04-10T08:31:28.681Z,101679.91
2023-04-10T08:33:56.558Z,101677.25
2023-04-10T08:36:23.696Z,101680.00
2023-04-10T08:38:50.571Z,101674.66
2023-04-10T08:41:19.728Z,101673.75
2023-04-10T08:43:47.190Z,101668.41
2023-04-10T08:46:14.990Z,101673.75
2023-04-10T08:48:47.583Z,101662.19
2023-04-10T08:51:20.483Z,101659.53
2023-04-10T08:53:58.431Z,101654.22
2023-04-10T08:56:26.048Z,101653.31
2023-04-10T08:58:53.205Z,101654.22
2023-04-10T09:01:21.767Z,101655.06
2023-04-10T09:03:49.096Z,101652.47
2023-04-10T09:06:16.113Z,101648.06
2023-04-10T09:08:42.889Z,101638.22
2023-04-10T09:11:10.782Z,101636.44
2023-04-10T09:13:42.596Z,101631.06
2023-04-10T09:16:11.202Z,101634.63
2023-04-10T09:18:46.095Z,101628.38
2023-04-10T09:21:17.119Z,101631.06
2023-04-10T09:23:45.798Z,101625.72
2023-04-10T09:26:32.364Z,101613.16
2023-04-10T09:29:05.241Z,101622.97
2023-04-10T09:31:40.164Z,101605.06
2023-04-10T09:34:16.443Z,101603.25
2023-04-10T09:36:58.499Z,101592.47
2023-04-10T09:39:40.940Z,101587.09
2023-04-10T09:42:07.740Z,101578.06
2023-04-10T09:44:37.572Z,101576.19
2023-04-10T09:47:18.958Z,101577.00
2023-04-10T09:50:00.739Z,101562.63
2023-04-10T09:52:33.666Z,101567.09
2023-04-10T09:55:07.581Z,101547.38
2023-04-10T09:57:35.718Z,101541.94
2023-04-10T10:00:06.874Z,101540.97
2023-04-10T10:02:39.768Z,101530.13
2023-04-10T10:05:07.450Z,101523.81
2023-04-10T10:07:34.994Z,101516.53
2023-04-10T10:10:03.391Z,101520.06
2023-04-10T10:12:54.959Z,101498.53
2023-04-10T10:15:23.156Z,101505.69
2023-04-10T10:18:21.372Z,101494.78
2023-04-10T10:20:50.671Z,101488.41
2023-04-10T10:23:19.507Z,101487.47
2023-04-10T10:25:46.750Z,101493.66
2023-04-10T10:28:14.773Z,101485.47
2023-04-10T10:30:43.029Z,101481.81
2023-04-10T10:33:13.350Z,101478.94
2023-04-10T10:35:41.201Z,101486.88
2023-04-10T10:38:08.519Z,101464.47
2023-04-10T10:41:14.396Z,101474.25
2023-04-10T10:44:08.395Z,101459.91
2023-04-10T10:46:42.684Z,101457.28
2023-04-10T10:49:09.415Z,101466.25
2023-04-10T10:51:50.868Z,101455.41
2023-04-10T10:54:35.405Z,101441.88
2023-04-10T10:57:06.397Z,101448.13
2023-04-10T10:59:48.419Z,101435.47
2023-04-10T11:02:19.937Z,101428.22
2023-04-10T11:04:49.795Z,101421.06
2023-04-10T11:07:17.268Z,101417.41
2023-04-10T11:09:50.955Z,101410.19
2023-04-10T11:12:24.315Z,101407.47
2023-04-10T11:15:04.495Z,101402.78
2023-04-10T11:17:54.267Z,101406.22
2023-04-10T11:20:25.676Z,101390.91
2023-04-10T11:23:10.495Z,101386.34
2023-04-10T11:26:07.223Z,101383.50
2023-04-10T11:28:37.347Z,101369.00
2023-04-10T11:31:23.086Z,101358.00
2023-04-10T11:33:56.472Z,101362.22
2023-04-10T11:36:23.932Z,101347.69
2023-04-10T11:39:02.724Z,101338.53
2023-04-10T11:41:34.981Z,101330.25
2023-04-10T11:44:06.268Z,101332.75
2023-04-10T11:46:37.942Z,101323.59
2023-04-10T11:49:06.603Z,101332.38
2023-04-10T11:51:34.041Z,101318.84
2023-04-10T11:54:12.321Z,101310.63
2023-04-10T11:56:41.734Z,101303.34
2023-04-10T11:59:19.498Z,101310.41
2023-04-10T12:01:47.293Z,101296.81
2023-04-10T12:04:18.362Z,101289.41
2023-04-10T12:06:51.457Z,101280.41
2023-04-10T12:09:20.626Z,101273.97
2023-04-10T12:11:56.737Z,101279.13
2023-04-10T12:14:28.988Z,101283.47
2023-04-10T12:16:56.884Z,101279.69
2023-04-10T12:19:23.782Z,101271.53
2023-04-10T12:21:51.056Z,101263.28
2023-04-10T12:24:44.923Z,101262.09
2023-04-10T12:27:22.488Z,101251.94
2023-04-10T12:29:53.146Z,101247.25
2023-04-10T12:32:20.696Z,101239.75
2023-04-10T12:34:58.417Z,101229.53
2023-04-10T12:37:26.592Z,101228.31
2023-04-10T12:39:53.799Z,101226.25
2023-04-10T12:42:22.931Z,101215.13
2023-04-10T12:45:01.058Z,101218.38
2023-04-10T12:47:29.555Z,101221.00
2023-04-10T12:50:11.725Z,101215.41
2023-04-10T12:52:42.376Z,101217.06
2023-04-10T12:55:11.196Z,101217.81
2023-04-10T12:57:38.167Z,101213.25
2023-04-10T13:00:07.221Z,101219.44
2023-04-10T13:02:34.241Z,101205.97
2023-04-10T13:05:01.812Z,101214.06
2023-04-10T13:07:28.635Z,101196.91
2023-04-10T13:09:55.395Z,101196.69
2023-04-10T13:12:22.992Z,101188.50
2023-04-10T13:14:49.781Z,101181.19
2023-04-10T13:17:16.569Z,101178.44
2023-04-10T13:19:43.339Z,101180.16
2023-04-10T13:22:10.091Z,101167.56
2023-04-10T13:24:37.007Z,101169.19
2023-04-10T13:27:03.957Z,101168.16
2023-04-10T13:29:30.753Z,101166.31
2023-04-10T13:31:57.886Z,101160.09
2023-04-10T13:34:24.683Z,101155.66
2023-04-10T13:36:51.463Z,101141.38
2023-04-10T13:39:18.645Z,101143.22
2023-04-10T13:41:45.498Z,101132.50
2023-04-10T13:44:12.322Z,101133.38
2023-04-10T13:46:39.149Z,101121.66
2023-04-10T13:49:06.003Z,101124.22
2023-04-10T13:51:32.786Z,101117.63
2023-04-10T13:53:59.553Z,101126.28
2023-04-10T13:56:26.406Z,101102.69
2023-04-10T13:58:53.393Z,101106.06
2023-04-10T14:01:20.488Z,101100.47
2023-04-10T14:03:47.485Z,101084.19
2023-04-10T14:06:14.349Z,101093.13
2023-04-10T14:08:41.203Z,101090.41
2023-04-10T14:11:08.005Z,101076.91
2023-04-10T14:13:34.759Z,101070.66
2023-04-10T14:16:01.707Z,101068.75
2023-04-10T14:23:52.472Z,101048.19
2023-04-10T14:26:19.258Z,101047.28
2023-04-10T14:28:46.042Z,101049.19
2023-04-10T14:31:12.845Z,101036.59
2023-04-10T14:33:39.643Z,101024.81
2023-04-10T14:36:07.100Z,101033.75
2023-04-10T14:38:33.909Z,101022.00
2023-04-10T14:41:00.836Z,101015.78
2023-04-10T14:43:27.626Z,101001.56
2023-04-10T14:45:54.400Z,101007.00
2023-04-10T14:48:21.347Z,101001.72
2023-04-10T14:50:49.337Z,100990.97
2023-04-10T14:53:16.702Z,100991.13
2023-04-10T14:55:43.502Z,100977.88
2023-04-10T14:58:11.182Z,100982.59
2023-04-10T15:00:38.004Z,100974.91
2023-04-10T15:03:06.102Z,100963.56
2023-04-10T15:05:33.115Z,100961.13
2023-04-10T15:07:59.939Z,100947.03
2023-04-10T15:10:29.094Z,100947.16
2023-04-10T15:12:55.917Z,100938.31
2023-04-10T15:15:22.676Z,100928.56
2023-04-10T15:17:49.569Z,100931.31
2023-04-10T15:20:16.504Z,100917.84
2023-04-10T15:22:44.900Z,100918.84
2023-04-10T15:25:15.057Z,100909.94
2023-04-10T15:27:41.921Z,100899.28
2023-04-10T15:30:09.105Z,100898.56
2023-04-10T15:32:38.212Z,100902.19
2023-04-10T15:35:05.933Z,100886.16
2023-04-10T15:37:35.307Z,100875.50
2023-04-10T15:40:06.317Z,100878.34
2023-04-10T15:42:35.286Z,100869.38
2023-04-10T15:45:03.113Z,100862.94
2023-04-10T15:47:30.676Z,100844.75
2023-04-10T15:49:57.676Z,100849.91
2023-04-10T15:52:24.467Z,100843.38
2023-04-10T15:54:51.292Z,100841.34
2023-04-10T15:57:18.090Z,100831.41
2023-04-10T15:59:44.863Z,100833.38
2023-04-10T16:02:11.755Z,100830.78
2023-04-10T16:04:38.761Z,100815.53
2023-04-10T16:07:05.563Z,100807.56
2023-04-10T16:09:32.308Z,100807.69
2023-04-10T16:11:59.088Z,100799.91
2023-04-10T16:14:25.888Z,100799.34
2023-04-10T16:16:52.687Z,100790.72
2023-04-10T16:19:19.479Z,100804.47
2023-04-10T16:21:46.353Z,100785.06
2023-04-10T16:24:13.224Z,100794.38
2023-04-10T16:26:40.099Z,100789.34
2023-04-10T16:29:06.838Z,100778.91
2023-04-10T16:31:33.729Z,100771.13
2023-04-10T16:34:01.260Z,100768.72
2023-04-10T16:36:28.017Z,100761.75
2023-04-10T16:38:54.938Z,100754.81
2023-04-10T16:41:22.701Z,100756.03
2023-04-10T16:43:49.502Z,100747.25
2023-04-10T16:46:16.314Z,100740.38
2023-04-10T16:48:43.076Z,100745.97
2023-04-10T16:51:16.499Z,100730.94
2023-04-10T16:53:43.344Z,100740.16
2023-04-10T16:56:10.571Z,100724.13
2023-04-10T16:58:38.025Z,100727.03
2023-04-10T17:01:19.284Z,100717.28
2023-04-10T17:03:48.103Z,100715.66
2023-04-10T17:06:15.855Z,100722.06
2023-04-10T17:08:42.930Z,100711.44
2023-04-10T17:11:10.239Z,100698.13
2023-04-10T17:13:37.153Z,100696.50
2023-04-10T17:16:05.441Z,100697.56
2023-04-10T17:18:32.685Z,100693.16
2023-04-10T17:20:59.694Z,100695.06
2023-04-10T17:23:26.550Z,100690.75
2023-04-10T17:25:53.352Z,100683.69
2023-04-10T17:28:20.407Z,100691.94
2023-04-10T17:30:48.357Z,100686.81
2023-04-10T17:33:15.348Z,100687.06
2023-04-10T17:35:42.506Z,100677.38
2023-04-10T17:38:09.465Z,100685.66
2023-04-10T17:40:37.450Z,100676.00
2023-04-10T17:43:04.482Z,100661.88
2023-04-10T17:45:31.268Z,100670.97
2023-04-10T17:47:58.150Z,100670.31
2023-04-10T17:50:25.881Z,100656.19
2023-04-10T17:52:53.149Z,100661.69
2023-04-10T17:55:21.078Z,100664.53
2023-04-10T17:57:48.964Z,100656.66
2023-04-10T18:00:20.856Z,100656.78
2023-04-10T18:02:55.208Z,100657.84
2023-04-10T18:05:24.694Z,100650.16
2023-04-10T18:07:51.444Z,100636.78
2023-04-10T18:10:18.306Z,100640.47
2023-04-10T18:12:45.157Z,100643.19
2023-04-10T18:15:14.153Z,100636.19
2023-04-10T18:17:41.269Z,100624.66
2023-04-10T18:20:08.646Z,100623.00
2023-04-10T18:22:35.402Z,100627.53
2023-04-10T18:25:02.255Z,100621.34
2023-04-10T18:27:34.676Z,100631.28
2023-04-10T18:30:02.038Z,100628.72
2023-04-10T18:32:28.956Z,100624.28
2023-04-10T18:34:55.809Z,100620.75
2023-04-10T18:37:22.592Z,100610.09
2023-04-10T18:39:49.371Z,100611.94
2023-04-10T18:42:16.288Z,100608.47
2023-04-10T18:44:43.069Z,100601.34
2023-04-10T18:47:11.053Z,100592.44
2023-04-10T18:49:38.002Z,100576.47
2023-04-10T18:52:04.834Z,100571.09
2023-04-10T18:54:31.627Z,100578.34
2023-04-10T18:56:58.463Z,100581.97
2023-04-10T18:59:26.780Z,100574.84
2023-04-10T19:01:53.947Z,100574.97
2023-04-10T19:04:20.890Z,100580.31
2023-04-10T19:06:47.904Z,100571.44
2023-04-10T19:09:14.909Z,100568.84
2023-04-10T19:11:42.616Z,100560.81
2023-04-10T19:14:09.409Z,100565.34
2023-04-10T19:16:36.762Z,100561.78
2023-04-10T19:19:03.532Z,100568.13
2023-04-10T19:21:31.537Z,100552.06
2023-04-10T19:23:58.385Z,100553.00
2023-04-10T19:26:25.492Z,100559.28
2023-04-10T19:28:52.269Z,100548.66
2023-04-10T19:31:19.531Z,100551.34
2023-04-10T19:33:46.421Z,100546.91
2023-04-10T19:36:15.450Z,100552.34
2023-04-10T19:38:44.468Z,100546.16
2023-04-10T19:41:15.660Z,100538.19
2023-04-10T19:43:43.088Z,100536.41
2023-04-10T19:46:17.906Z,100524.84
2023-04-10T19:48:45.159Z,100533.81
2023-04-10T19:51:12.012Z,100524.06
2023-04-10T19:53:38.958Z,100521.41
2023-04-10T19:56:06.465Z,100520.53
2023-04-10T19:58:40.644Z,100510.81
2023-04-10T20:01:09.270Z,100519.81
2023-04-10T20:03:37.041Z,100506.53
2023-04-10T20:06:07.496Z,100506.53
2023-04-10T20:08:35.678Z,100493.16
2023-04-10T20:11:06.032Z,100492.28
2023-04-10T20:13:36.008Z,100492.41
2023-04-10T20:16:03.062Z,100485.28
2023-04-10T20:18:32.015Z,100481.81
2023-04-10T20:20:58.843Z,100470.31
2023-04-10T20:23:25.593Z,100463.19
2023-04-10T20:25:52.343Z,100459.69
2023-04-10T20:28:20.068Z,100443.69
2023-04-10T20:30:46.901Z,100450.84
2023-04-10T20:33:13.679Z,100442.84
2023-04-10T20:35:40.516Z,100446.44
2023-04-10T20:38:07.396Z,100444.69
2023-04-10T20:40:34.770Z,100437.59
2023-04-10T20:43:01.596Z,100434.91
2023-04-10T20:45:28.347Z,100440.31
2023-04-10T20:47:59.360Z,100432.31
2023-04-10T20:50:26.208Z,100426.09
2023-04-10T20:52:52.984Z,100416.38
2023-04-10T20:55:19.800Z,100418.13
2023-04-10T20:57:46.550Z,100415.53
2023-04-10T21:00:13.840Z,100416.47
2023-04-10T21:02:40.735Z,100407.56
2023-04-10T21:05:08.132Z,100406.69
2023-04-10T21:07:34.967Z,100395.09
2023-04-10T21:10:01.743Z,100401.41
2023-04-10T21:12:28.556Z,100402.34
2023-04-10T21:14:55.339Z,100398.81
2023-04-10T21:17:22.616Z,100394.41
2023-04-10T21:19:49.432Z,100391.81
2023-04-10T21:22:16.190Z,100374.00
2023-04-10T21:24:42.939Z,100378.53
2023-04-10T21:27:09.764Z,100376.75
2023-04-10T21:29:36.541Z,100357.16
2023-04-10T21:32:03.359Z,100355.41
2023-04-10T21:34:30.496Z,100354.56
2023-04-10T21:36:57.343Z,100345.69
2023-04-10T21:39:24.117Z,100346.59
2023-04-10T21:41:50.869Z,100344.84
2023-04-10T21:44:18.172Z,100335.97
2023-04-10T21:46:44.996Z,100330.66
2023-04-10T21:49:11.759Z,100329.78
2023-04-10T21:51:40.639Z,100331.56
2023-04-10T21:54:07.454Z,100325.28
2023-04-10T21:56:35.528Z,100327.13
2023-04-10T21:59:02.403Z,100334.28
2023-04-10T22:01:29.217Z,100325.41
2023-04-10T22:03:57.002Z,100331.63
2023-04-10T22:06:23.952Z,100337.06
2023-04-10T22:08:50.728Z,100349.53
2023-04-10T22:11:17.599Z,100355.72
2023-04-10T22:13:44.370Z,100360.22
2023-04-10T22:16:11.194Z,100368.28
2023-04-10T22:18:38.053Z,100364.75
2023-04-10T22:21:04.977Z,100368.47
2023-04-10T22:23:32.106Z,100380.28
2023-04-10T22:26:02.035Z,100384.13
2023-04-10T22:28:29.054Z,100371.97
2023-04-10T22:30:55.838Z,100377.66
2023-04-10T22:33:22.740Z,100370.97
2023-04-10T22:35:53.590Z,100369.53
2023-04-10T22:38:20.419Z,100361.81
2023-04-10T22:40:47.168Z,100357.72
2023-04-10T22:43:13.925Z,100345.47
2023-04-10T22:45:42.180Z,100347.41
2023-04-10T22:48:09.078Z,100352.84
2023-04-10T22:50:36.389Z,100346.66
2023-04-10T22:53:03.161Z,100342.31
2023-04-10T22:55:30.014Z,100332.63
2023-04-10T22:57:56.831Z,100344.31
2023-04-10T23:00:24.609Z,100339.94
2023-04-10T23:02:51.504Z,100332.03
2023-04-10T23:05:18.314Z,100337.56
2023-04-10T23:07:45.096Z,100337.75
2023-04-10T23:10:11.880Z,100337.94
2023-04-10T23:12:38.661Z,100352.41
2023-04-10T23:15:07.823Z,100350.84
2023-04-10T23:17:34.645Z,100345.75
2023-04-10T23:20:01.411Z,100352.13
2023-04-10T23:22:29.498Z,100350.53
2023-04-10T23:24:57.263Z,100337.41
2023-04-10T23:27:24.465Z,100349.09
2023-04-10T23:29:58.725Z,100344.00
2023-04-10T23:32:25.502Z,100339.75
2023-04-10T23:34:52.250Z,100331.00
2023-04-10T23:37:19.156Z,100332.94
2023-04-10T23:39:46.007Z,100335.66
2023-04-10T23:42:12.769Z,100335.78
2023-04-10T23:44:40.417Z,100330.56
2023-04-10T23:47:07.262Z,100333.31
2023-04-10T23:49:35.195Z,100342.25
2023-04-10T23:52:01.988Z,100339.66
2023-04-10T23:54:29.683Z,100332.63
2023-04-10T23:56:56.426Z,100331.75
2023-04-10T23:59:23.229Z,100309.63
